Time;durP1;ratioP1;P1;durP2;ratioP2;P2;SDS_P1;SDS_P2;PMS_P1;PMS_P2;Temp;Humidity;BMP_temperature;BMP_pressure;BME280_temperature;BME280_humidity;BME280_pressure;Samples;Min_cycle;Max_cycle;Signal;HPM_P1;HPM_P2
2022/12/13 00:01:49;;;;;;;;;21.25;16.75;;;;;-0.63;67.83;100434.03;5057810;28;63800;-81
2022/12/13 00:04:15;;;;;;;;;22.75;13.00;;;;;-0.62;67.87;100437.44;5058353;28;45498;-81
2022/12/13 00:06:41;;;;;;;;;25.75;12.00;;;;;-0.63;67.71;100430.63;5058321;28;45336;-80
2022/12/13 00:09:07;;;;;;;;;15.50;14.00;;;;;-0.63;67.66;100433.19;5058415;28;45293;-81
2022/12/13 00:11:32;;;;;;;;;18.00;10.00;;;;;-0.65;67.72;100429.72;5057837;28;46201;-80
2022/12/13 00:13:58;;;;;;;;;18.25;14.00;;;;;-0.66;67.72;100430.56;5040104;28;45384;-81
2022/12/13 00:16:24;;;;;;;;;14.50;11.25;;;;;-0.69;67.78;100427.97;5039948;28;45397;-81
2022/12/13 00:18:54;;;;;;;;;11.00;9.25;;;;;-0.70;67.55;100429.69;5040111;28;45504;-81
2022/12/13 00:21:21;;;;;;;;;17.00;11.50;;;;;-0.71;67.90;100427.94;5040097;28;46594;-81
2022/12/13 00:23:46;;;;;;;;;20.75;10.50;;;;;-0.71;67.53;100427.09;5057891;28;45348;-81
2022/12/13 00:26:15;;;;;;;;;18.00;9.25;;;;;-0.70;67.78;100426.28;5039712;28;45437;-81
2022/12/13 00:28:40;;;;;;;;;14.50;13.00;;;;;-0.73;67.68;100416.00;5039757;28;45331;-81
2022/12/13 00:31:07;;;;;;;;;21.50;13.25;;;;;-0.71;67.78;100425.38;5057691;28;46415;-81
2022/12/13 00:33:32;;;;;;;;;12.75;10.50;;;;;-0.72;67.46;100421.13;5057888;28;45392;-81
2022/12/13 00:35:58;;;;;;;;;12.25;7.50;;;;;-0.73;67.47;100418.56;5039831;28;45416;-81
2022/12/13 00:38:23;;;;;;;;;14.00;9.50;;;;;-0.75;67.79;100415.97;5039908;28;45278;-81
2022/12/13 00:40:50;;;;;;;;;7.50;6.75;;;;;-0.74;67.76;100416.81;5021795;28;69488;-81
2022/12/13 00:43:15;;;;;;;;;13.25;10.00;;;;;-0.74;67.54;100419.38;5039755;28;46003;-81
2022/12/13 00:45:41;;;;;;;;;15.50;9.25;;;;;-0.75;67.24;100418.53;5039908;28;45417;-81
2022/12/13 00:48:06;;;;;;;;;17.25;10.25;;;;;-0.76;67.51;100409.16;5039116;28;58491;-81
2022/12/13 00:50:31;;;;;;;;;15.00;9.00;;;;;-0.76;67.58;100406.63;5039297;28;52300;-81
2022/12/13 00:53:00;;;;;;;;;10.50;8.50;;;;;-0.76;67.69;100411.72;5057442;28;45387;-81
2022/12/13 00:55:26;;;;;;;;;13.50;9.50;;;;;-0.76;67.73;100404.06;5057021;28;45444;-81
2022/12/13 00:57:51;;;;;;;;;14.25;6.25;;;;;-0.79;67.00;100409.97;5039535;28;45360;-80
2022/12/13 01:00:17;;;;;;;;;13.25;9.25;;;;;-0.79;67.30;100416.78;5038611;28;67930;-80
2022/12/13 01:02:42;;;;;;;;;10.00;9.50;;;;;-0.80;67.39;100420.16;5057104;28;49184;-81
2022/12/13 01:05:09;;;;;;;;;13.00;11.50;;;;;-0.81;67.43;100414.22;5057333;28;45514;-80
2022/12/13 01:07:35;;;;;;;;;10.75;9.50;;;;;-0.81;67.28;100416.75;5039361;28;45562;-80
2022/12/13 01:10:01;;;;;;;;;15.00;7.50;;;;;-0.81;67.48;100410.81;5056783;28;46411;-81
2022/12/13 01:12:26;;;;;;;;;11.25;7.00;;;;;-0.80;67.26;100407.38;5038814;28;54733;-80
2022/12/13 01:14:51;;;;;;;;;13.50;9.00;;;;;-0.82;67.34;100412.50;5056741;28;57444;-80
2022/12/13 01:17:17;;;;;;;;;10.75;9.75;;;;;-0.83;67.42;100410.78;5056834;28;51094;-80
2022/12/13 01:19:42;;;;;;;;;8.50;6.75;;;;;-0.84;67.24;100411.59;5038207;28;69578;-81
2022/12/13 01:22:07;;;;;;;;;13.00;8.50;;;;;-0.83;67.19;100409.94;5056434;28;61917;-81
2022/12/13 01:24:33;;;;;;;;;16.50;7.00;;;;;-0.85;66.95;100407.34;5056652;28;45589;-80
2022/12/13 01:26:59;;;;;;;;;10.50;8.00;;;;;-0.86;67.16;100405.63;5039101;28;45429;-80
2022/12/13 01:29:25;;;;;;;;;8.25;5.50;;;;;-0.87;67.03;100411.59;5056488;28;47115;-80
2022/12/13 01:31:51;;;;;;;;;14.75;7.00;;;;;-0.87;67.01;100411.59;5056816;28;46726;-80
2022/12/13 01:34:19;;;;;;;;;9.75;5.50;;;;;-0.87;66.77;100410.75;5056905;28;45274;-80
2022/12/13 01:36:45;;;;;;;;;10.00;9.00;;;;;-0.88;66.80;100404.75;5038831;28;45521;-80
2022/12/13 01:39:13;;;;;;;;;10.50;6.00;;;;;-0.88;66.87;100399.63;5038333;28;46250;-81
2022/12/13 01:41:39;;;;;;;;;7.00;6.50;;;;;-0.90;66.53;100403.03;5038558;28;46009;-80
2022/12/13 01:44:06;;;;;;;;;12.50;7.50;;;;;-0.91;67.10;100398.72;5056820;28;45368;-80
2022/12/13 01:46:33;;;;;;;;;12.50;9.00;;;;;-0.92;66.64;100397.88;5038696;28;45538;-80
2022/12/13 01:49:09;;;;;;;;;10.50;9.00;;;;;-0.91;66.96;100402.19;5038726;28;46362;-80
2022/12/13 01:51:41;;;;;;;;;17.50;10.00;;;;;-0.92;66.65;100392.78;5038606;28;46004;-80
2022/12/13 01:54:10;;;;;;;;;15.00;10.00;;;;;-0.95;66.44;100407.22;5045672;28;45469;-78
2022/12/13 01:56:47;;;;;;;;;14.25;7.00;;;;;-0.99;66.69;100399.50;5056469;28;45309;-80
2022/12/13 01:59:15;;;;;;;;;22.25;10.00;;;;;-1.00;66.61;100399.50;5038555;28;46428;-81
2022/12/13 02:01:41;;;;;;;;;12.50;6.75;;;;;-0.99;66.87;100412.28;5056041;28;46033;-80
2022/12/13 02:04:07;;;;;;;;;11.00;7.50;;;;;-0.98;66.42;100411.44;5037774;28;45458;-80
2022/12/13 02:06:34;;;;;;;;;9.25;7.00;;;;;-1.00;66.60;100409.72;5056357;28;45423;-80
2022/12/13 02:09:03;;;;;;;;;9.75;9.00;;;;;-1.01;66.43;100413.94;5021365;28;47365;-80
2022/12/13 02:11:28;;;;;;;;;16.75;7.50;;;;;-0.99;66.50;100416.53;5056355;28;45849;-81
2022/12/13 02:13:53;;;;;;;;;11.25;9.25;;;;;-1.01;66.54;100411.41;5038022;28;51617;-80
2022/12/13 02:16:27;;;;;;;;;11.00;7.00;;;;;-1.02;66.90;100406.28;5037621;28;59620;-80
2022/12/13 02:19:21;;;;;;;;;11.00;7.00;;;;;-1.01;66.83;100410.53;5056161;28;46297;-80
2022/12/13 02:22:05;;;;;;;;;9.00;7.50;;;;;-1.00;66.75;100405.47;5056070;28;45915;-80
2022/12/13 02:24:48;;;;;;;;;11.00;6.50;;;;;-1.00;66.14;100413.13;5056277;28;45303;-80
2022/12/13 02:27:51;;;;;;;;;10.00;4.00;;;;;-1.01;66.71;100408.00;5038242;28;45254;-80
2022/12/13 02:30:19;;;;;;;;;9.00;6.00;;;;;-0.98;66.68;100410.59;5035837;28;45719;-80
2022/12/13 02:33:25;;;;;;;;;9.25;6.00;;;;;-1.00;66.70;100409.72;5035917;28;45384;-80
2022/12/13 02:35:56;;;;;;;;;9.00;6.00;;;;;-1.02;66.58;100398.63;5035924;28;45310;-80
2022/12/13 02:38:27;;;;;;;;;10.25;7.00;;;;;-1.03;67.13;100407.97;5035737;28;45278;-80
2022/12/13 02:41:43;;;;;;;;;9.75;7.50;;;;;-1.06;66.70;100407.06;5039350;28;46581;-80
2022/12/13 02:44:21;;;;;;;;;10.50;7.00;;;;;-1.07;66.49;100406.22;4996901;28;45997;-80
2022/12/13 02:46:51;;;;;;;;;12.75;6.50;;;;;-1.04;66.65;100405.38;4997239;28;45340;-80
2022/12/13 02:49:18;;;;;;;;;13.00;7.00;;;;;-1.04;66.85;100402.84;5013708;28;45451;-80
2022/12/13 02:51:44;;;;;;;;;18.75;8.00;;;;;-1.02;66.75;100409.69;5013149;28;46249;-80
2022/12/13 02:54:09;;;;;;;;;9.00;6.50;;;;;-1.01;66.48;100403.72;4996752;28;45398;-79
2022/12/13 02:56:34;;;;;;;;;18.50;9.25;;;;;-1.02;66.42;100403.75;5013612;28;45447;-80
2022/12/13 02:59:02;;;;;;;;;13.50;7.50;;;;;-1.02;66.53;100401.19;5013051;28;56101;-80
2022/12/13 03:01:43;;;;;;;;;10.50;7.00;;;;;-1.02;66.62;100402.03;4996944;28;46293;-80
2022/12/13 03:04:29;;;;;;;;;10.00;6.75;;;;;-1.01;66.19;100390.09;4996530;28;45471;-80
2022/12/13 03:07:25;;;;;;;;;9.00;6.50;;;;;-1.01;66.25;100392.66;5013398;28;45450;-80
2022/12/13 03:10:16;;;;;;;;;11.75;6.50;;;;;-1.03;65.97;100389.22;4989750;28;45446;-80
2022/12/13 03:15:43;;;;;;;;;13.00;8.00;;;;;-1.05;66.05;100383.25;5013233;28;46032;-80
2022/12/13 03:18:17;;;;;;;;;15.75;6.50;;;;;-1.06;66.35;100377.28;5020933;28;45520;-81
2022/12/13 03:20:51;;;;;;;;;9.50;7.00;;;;;-1.08;66.06;100376.38;5058771;28;45268;-80
2022/12/13 03:23:17;;;;;;;;;13.00;10.00;;;;;-1.09;66.13;100368.72;5041140;28;45437;-80
2022/12/13 03:25:43;;;;;;;;;8.50;8.50;;;;;-1.08;66.23;100368.72;5040929;28;45973;-80
2022/12/13 03:28:08;;;;;;;;;11.50;9.00;;;;;-1.10;66.22;100361.88;5058838;28;45445;-80
2022/12/13 03:30:34;;;;;;;;;12.50;6.25;;;;;-1.11;66.28;100370.41;5059106;28;45418;-80
2022/12/13 03:33:00;;;;;;;;;11.75;8.50;;;;;-1.13;66.33;100360.16;5040708;28;46340;-80
2022/12/13 03:35:26;;;;;;;;;12.00;9.75;;;;;-1.15;66.24;100358.41;5058392;28;45372;-80
2022/12/13 03:37:51;;;;;;;;;9.00;6.75;;;;;-1.18;66.42;100370.31;5041001;28;45372;-80
2022/12/13 03:40:17;;;;;;;;;7.75;7.00;;;;;-1.18;66.18;100370.31;5040538;28;56171;-80
2022/12/13 03:42:43;;;;;;;;;15.25;8.00;;;;;-1.18;66.23;100365.19;5057775;28;68385;-80
2022/12/13 03:45:08;;;;;;;;;15.50;7.00;;;;;-1.17;66.80;100361.81;5040310;28;49613;-80
2022/12/13 03:47:34;;;;;;;;;16.25;8.00;;;;;-1.18;66.37;100360.09;5058828;28;45447;-80
2022/12/13 03:49:59;;;;;;;;;10.75;5.00;;;;;-1.20;66.39;100356.66;5057662;28;60969;-80
2022/12/13 03:52:24;;;;;;;;;14.75;6.00;;;;;-1.20;66.22;100359.22;5058579;28;46306;-80
2022/12/13 03:54:50;;;;;;;;;21.50;5.00;;;;;-1.20;66.03;100353.25;5057496;28;63225;-80
2022/12/13 03:57:15;;;;;;;;;10.00;5.00;;;;;-1.22;66.23;100355.78;5040534;28;45302;-80
2022/12/13 03:59:40;;;;;;;;;7.00;6.50;;;;;-1.23;66.03;100358.31;5057901;28;64416;-80
2022/12/13 04:02:06;;;;;;;;;12.00;9.25;;;;;-1.23;65.92;100364.28;5057899;28;62814;-80
2022/12/13 04:04:31;;;;;;;;;12.75;9.50;;;;;-1.24;66.15;100362.56;5057191;28;63102;-79
2022/12/13 04:06:56;;;;;;;;;17.25;10.75;;;;;-1.26;66.13;100373.63;5039917;28;58605;-80
2022/12/13 04:09:22;;;;;;;;;9.50;9.00;;;;;-1.28;65.82;100365.94;5057903;28;57273;-80
2022/12/13 04:14:31;;;;;;;;;15.50;8.50;;;;;-1.31;66.25;100370.13;5058104;28;45287;-80
2022/12/13 04:16:56;;;;;;;;;10.75;8.00;;;;;-1.32;66.35;100368.41;5058367;28;45301;-80
2022/12/13 04:19:22;;;;;;;;;9.50;7.00;;;;;-1.33;66.25;100365.00;5057306;28;60662;-80
2022/12/13 04:21:47;;;;;;;;;25.00;10.00;;;;;-1.34;66.37;100359.88;5039509;28;62685;-80
2022/12/13 04:24:12;;;;;;;;;13.50;7.50;;;;;-1.33;66.15;100365.00;5057425;28;62323;-80
2022/12/13 04:26:38;;;;;;;;;9.25;6.25;;;;;-1.33;65.90;100359.06;5040141;28;45683;-80
2022/12/13 04:29:03;;;;;;;;;11.50;8.00;;;;;-1.34;66.41;100365.84;5056876;28;54596;-80
2022/12/13 04:31:28;;;;;;;;;12.25;7.50;;;;;-1.32;66.39;100355.63;5057307;28;64179;-80
2022/12/13 04:33:54;;;;;;;;;13.00;9.50;;;;;-1.34;66.24;100345.41;5038884;28;62959;-78
2022/12/13 04:36:19;;;;;;;;;11.00;9.00;;;;;-1.34;66.27;100342.84;5057859;28;48306;-80
2022/12/13 04:38:46;;;;;;;;;14.50;7.50;;;;;-1.33;65.89;100336.91;5057303;28;58385;-80
2022/12/13 04:41:16;;;;;;;;;12.75;9.00;;;;;-1.35;66.28;100340.31;5039643;28;46448;-79
2022/12/13 04:43:42;;;;;;;;;12.25;8.00;;;;;-1.37;66.46;100341.13;5057764;28;45427;-80
2022/12/13 04:46:07;;;;;;;;;15.25;11.00;;;;;-1.39;66.27;100337.69;5039931;28;45499;-80
2022/12/13 04:48:33;;;;;;;;;13.00;7.00;;;;;-1.40;66.11;100333.41;5039626;28;45419;-80
2022/12/13 04:50:59;;;;;;;;;14.25;9.25;;;;;-1.40;65.88;100327.47;5057543;28;46164;-79
2022/12/13 04:53:24;;;;;;;;;18.25;10.00;;;;;-1.41;66.33;100341.94;5057362;28;45301;-79
2022/12/13 04:55:49;;;;;;;;;12.25;7.50;;;;;-1.43;66.42;100341.06;5056857;28;60498;-80
2022/12/13 04:58:15;;;;;;;;;15.75;10.50;;;;;-1.44;66.32;100336.75;5057172;28;57605;-79
2022/12/13 05:00:40;;;;;;;;;18.50;13.75;;;;;-1.45;66.30;100331.63;5056818;28;63695;-80
2022/12/13 05:03:05;;;;;;;;;13.25;12.25;;;;;-1.46;66.60;100333.34;5022522;28;45819;-80
2022/12/13 05:05:31;;;;;;;;;18.25;12.75;;;;;-1.46;66.08;100330.78;5039431;28;45377;-80
2022/12/13 05:07:56;;;;;;;;;13.50;7.50;;;;;-1.45;66.21;100332.50;5056720;28;62149;-80
2022/12/13 05:10:22;;;;;;;;;14.50;10.00;;;;;-1.46;66.41;100330.78;5057348;28;46321;-80
2022/12/13 05:12:47;;;;;;;;;12.00;9.00;;;;;-1.46;66.56;100335.88;5038586;28;64528;-79
2022/12/13 05:15:12;;;;;;;;;16.25;11.50;;;;;-1.48;66.45;100332.47;5056830;28;57481;-80
2022/12/13 05:17:38;;;;;;;;;14.25;9.25;;;;;-1.49;66.43;100332.44;5057005;28;45355;-79
2022/12/13 05:20:03;;;;;;;;;10.25;9.00;;;;;-1.49;66.83;100332.44;5056564;28;59931;-79
2022/12/13 05:22:29;;;;;;;;;15.25;11.00;;;;;-1.47;66.45;100328.22;5057133;28;45403;-80
2022/12/13 05:24:54;;;;;;;;;6.00;6.00;;;;;-1.49;66.67;100327.34;5038393;28;62275;-79
2022/12/13 05:27:19;;;;;;;;;17.00;9.75;;;;;-1.47;66.32;100325.66;5038979;28;45536;-79
2022/12/13 05:29:45;;;;;;;;;17.00;9.00;;;;;-1.47;66.49;100326.50;5021925;28;57230;-79
2022/12/13 05:32:10;;;;;;;;;18.75;9.00;;;;;-1.45;66.53;100329.09;5037904;28;62022;-79
2022/12/13 05:34:35;;;;;;;;;18.75;12.50;;;;;-1.45;66.44;100335.06;5056207;28;58003;-79
2022/12/13 05:37:01;;;;;;;;;10.50;9.00;;;;;-1.47;66.28;100340.97;5056581;28;54324;-79
2022/12/13 05:39:26;;;;;;;;;13.50;8.50;;;;;-1.48;66.47;100344.38;5055807;28;45396;-79
2022/12/13 05:41:52;;;;;;;;;15.50;9.50;;;;;-1.49;66.14;100337.53;5056091;28;60548;-80
2022/12/13 05:44:18;;;;;;;;;11.50;8.00;;;;;-1.51;66.55;100350.28;5039080;28;45345;-79
2022/12/13 05:46:43;;;;;;;;;21.75;7.00;;;;;-1.51;66.64;100350.28;5056392;28;45533;-80
2022/12/13 05:49:08;;;;;;;;;22.25;11.00;;;;;-1.50;66.22;100348.63;5056093;28;62851;-80
2022/12/13 05:51:34;;;;;;;;;13.50;10.50;;;;;-1.49;66.77;100347.75;5038609;28;50018;-80
2022/12/13 05:53:59;;;;;;;;;12.25;4.00;;;;;-1.49;66.24;100350.31;5056241;28;52465;-79
2022/12/13 05:56:24;;;;;;;;;18.25;9.50;;;;;-1.50;66.17;100344.34;5056120;28;52364;-80
2022/12/13 05:58:50;;;;;;;;;18.50;12.75;;;;;-1.53;66.24;100346.84;5055784;28;67183;-80
2022/12/13 06:01:17;;;;;;;;;15.00;9.75;;;;;-1.52;66.35;100357.91;5038169;28;45392;-79
2022/12/13 06:03:42;;;;;;;;;18.50;14.00;;;;;-1.53;66.39;100353.66;5038585;28;45361;-80
2022/12/13 06:06:09;;;;;;;;;22.50;12.75;;;;;-1.55;66.40;100353.63;5056594;28;45425;-80
2022/12/13 06:08:35;;;;;;;;;19.25;9.25;;;;;-1.54;66.83;100352.81;5038594;28;46553;-79
2022/12/13 06:11:02;;;;;;;;;15.75;8.50;;;;;-1.53;66.80;100371.53;5038446;28;45514;-79
2022/12/13 06:13:27;;;;;;;;;19.75;9.50;;;;;-1.53;66.71;100374.94;5056466;28;45482;-79
2022/12/13 06:15:53;;;;;;;;;18.25;10.00;;;;;-1.52;66.75;100374.09;5037481;28;57388;-79
2022/12/13 06:18:19;;;;;;;;;7.00;6.50;;;;;-1.50;66.83;100374.97;5038416;28;45600;-79
2022/12/13 06:20:46;;;;;;;;;12.75;9.75;;;;;-1.49;66.27;100375.84;5056322;28;45373;-79
2022/12/13 06:23:11;;;;;;;;;14.75;11.50;;;;;-1.49;66.72;100374.13;5056281;28;45420;-79
2022/12/13 06:25:37;;;;;;;;;17.50;13.00;;;;;-1.46;66.57;100381.00;5055738;28;59126;-79
2022/12/13 06:28:02;;;;;;;;;14.00;9.50;;;;;-1.48;66.88;100375.88;5037339;28;66385;-79
2022/12/13 06:30:29;;;;;;;;;19.75;9.00;;;;;-1.47;66.85;100377.56;5055597;28;45424;-79
2022/12/13 06:32:54;;;;;;;;;20.50;12.25;;;;;-1.46;66.62;100374.19;5056267;28;45479;-80
2022/12/13 06:35:19;;;;;;;;;13.00;10.25;;;;;-1.44;66.48;100372.50;5055334;28;60964;-80
2022/12/13 06:37:45;;;;;;;;;13.00;6.75;;;;;-1.43;66.43;100374.25;5037931;28;46156;-80
2022/12/13 06:40:10;;;;;;;;;12.75;10.00;;;;;-1.42;66.79;100364.88;5037497;28;60039;-80
2022/12/13 06:42:36;;;;;;;;;14.25;11.50;;;;;-1.42;67.07;100362.31;5037704;28;45397;-79
2022/12/13 06:45:01;;;;;;;;;18.50;12.50;;;;;-1.43;66.62;100353.81;5054917;28;63302;-80
2022/12/13 06:47:26;;;;;;;;;25.25;15.00;;;;;-1.44;66.83;100353.78;5055232;28;62566;-80
2022/12/13 06:49:52;;;;;;;;;15.75;12.00;;;;;-1.45;66.61;100354.63;5055643;28;45308;-80
2022/12/13 06:52:17;;;;;;;;;15.25;12.00;;;;;-1.45;66.87;100352.94;5055446;28;45710;-81
2022/12/13 06:54:43;;;;;;;;;20.75;9.50;;;;;-1.43;66.65;100350.38;5054929;28;55571;-80
2022/12/13 06:57:09;;;;;;;;;13.00;11.00;;;;;-1.44;66.50;100352.09;5055229;28;45690;-80
2022/12/13 06:59:35;;;;;;;;;15.50;12.50;;;;;-1.44;66.43;100352.09;5055705;28;45345;-79
2022/12/13 07:02:00;;;;;;;;;22.50;12.75;;;;;-1.44;66.71;100346.13;5055773;28;45321;-79
2022/12/13 07:04:26;;;;;;;;;16.00;11.00;;;;;-1.42;66.60;100342.75;5055782;28;45300;-80
2022/12/13 07:06:51;;;;;;;;;22.75;15.00;;;;;-1.41;66.73;100346.16;5055656;28;46573;-80
2022/12/13 07:09:16;;;;;;;;;18.00;11.50;;;;;-1.41;66.44;100346.16;5037495;28;45337;-80
2022/12/13 07:11:42;;;;;;;;;13.50;10.00;;;;;-1.39;66.26;100339.41;5037531;28;45322;-79
2022/12/13 07:14:08;;;;;;;;;13.00;9.25;;;;;-1.39;66.50;100347.91;5055174;28;55581;-79
2022/12/13 07:16:33;;;;;;;;;24.00;17.50;;;;;-1.39;66.47;100352.16;5036681;28;58381;-81
2022/12/13 07:18:59;;;;;;;;;11.00;9.50;;;;;-1.39;66.91;100347.91;5036858;28;55775;-81
2022/12/13 07:21:26;;;;;;;;;18.00;13.00;;;;;-1.34;66.39;100352.22;5037282;28;45403;-80
2022/12/13 07:23:51;;;;;;;;;10.75;10.00;;;;;-1.34;66.53;100347.09;5055406;28;45298;-81
2022/12/13 07:26:17;;;;;;;;;12.75;8.00;;;;;-1.34;66.74;100349.66;5037027;28;45444;-80
2022/12/13 07:28:42;;;;;;;;;19.50;12.75;;;;;-1.34;66.45;100364.97;5020019;28;45388;-81
2022/12/13 07:31:09;;;;;;;;;15.75;9.75;;;;;-1.35;66.44;100364.13;5020428;28;49914;-81
2022/12/13 07:33:35;;;;;;;;;20.25;11.00;;;;;-1.35;66.67;100366.69;5037357;28;45492;-81
2022/12/13 07:36:06;;;;;;;;;15.00;9.00;;;;;-1.33;66.41;100359.06;5054976;28;46388;-81
2022/12/13 07:38:32;;;;;;;;;16.50;12.25;;;;;-1.32;66.93;100370.97;5055212;28;45498;-81
2022/12/13 07:40:58;;;;;;;;;21.00;12.50;;;;;-1.34;66.23;100370.09;5036869;28;45357;-81
2022/12/13 07:43:24;;;;;;;;;19.50;9.75;;;;;-1.33;66.72;100371.81;5055242;28;45278;-80
2022/12/13 07:45:50;;;;;;;;;15.00;12.00;;;;;-1.34;66.69;100378.59;5037210;28;45516;-81
2022/12/13 07:48:16;;;;;;;;;14.50;11.00;;;;;-1.32;66.62;100386.28;5055086;28;46001;-81
2022/12/13 07:50:42;;;;;;;;;17.50;5.00;;;;;-1.30;66.40;100382.06;5037449;28;45364;-81
2022/12/13 07:53:08;;;;;;;;;22.00;16.00;;;;;-1.31;66.26;100390.56;5055184;28;45736;-81
2022/12/13 07:55:33;;;;;;;;;17.75;13.00;;;;;-1.33;66.32;100405.88;5036441;28;46371;-81
2022/12/13 07:58:10;;;;;;;;;14.25;11.25;;;;;-1.29;66.15;100411.88;5036904;28;45607;-81
2022/12/13 08:00:36;;;;;;;;;17.75;15.50;;;;;-1.27;66.37;100402.53;5037247;28;45389;-80
2022/12/13 08:03:02;;;;;;;;;21.50;14.50;;;;;-1.26;66.11;100406.81;5056796;28;45337;-81
2022/12/13 08:05:28;;;;;;;;;26.50;16.00;;;;;-1.23;66.44;100404.28;5040252;28;45365;-81
2022/12/13 08:07:53;;;;;;;;;17.50;12.25;;;;;-1.22;66.10;100409.41;5040328;28;45382;-81
2022/12/13 08:10:18;;;;;;;;;21.25;13.25;;;;;-1.21;66.14;100403.50;5056587;28;45538;-80
2022/12/13 08:12:44;;;;;;;;;23.25;12.00;;;;;-1.19;66.13;100403.47;5057300;28;45315;-81
2022/12/13 08:15:10;;;;;;;;;19.00;15.00;;;;;-1.21;66.03;100400.06;5048303;28;46301;-81
2022/12/13 08:17:35;;;;;;;;;26.50;17.25;;;;;-1.21;66.10;100402.59;5046852;28;52062;-81
2022/12/13 08:20:00;;;;;;;;;24.50;17.50;;;;;-1.17;66.23;100404.34;5056556;28;55511;-81
2022/12/13 08:22:28;;;;;;;;;17.50;12.50;;;;;-1.17;65.89;100412.91;5042423;28;45589;-84
2022/12/13 08:24:53;;;;;;;;;20.75;16.00;;;;;-1.14;66.12;100417.19;5056258;28;46544;-82
2022/12/13 08:27:21;;;;;;;;;20.00;16.00;;;;;-1.14;65.62;100414.63;5057106;28;59196;-83
2022/12/13 08:29:47;;;;;;;;;12.75;10.00;;;;;-1.15;65.94;100418.03;5039968;28;45343;-82
2022/12/13 08:32:12;;;;;;;;;19.25;11.00;;;;;-1.14;65.72;100414.63;5055331;28;57030;-80
2022/12/13 08:34:38;;;;;;;;;30.50;15.50;;;;;-1.15;65.85;100420.59;5057569;28;46370;-81
2022/12/13 08:37:04;;;;;;;;;28.75;15.00;;;;;-1.15;65.73;100414.59;5055982;28;45780;-82
2022/12/13 08:39:34;;;;;;;;;23.25;12.75;;;;;-1.13;65.78;100410.38;5046203;28;45312;-81
2022/12/13 08:42:00;;;;;;;;;25.75;15.75;;;;;-1.11;65.97;100408.72;5046829;28;45396;-83
2022/12/13 08:44:25;;;;;;;;;19.50;15.50;;;;;-1.08;66.00;100417.25;5037020;28;47202;-81
2022/12/13 08:46:51;;;;;;;;;23.75;15.25;;;;;-1.05;65.56;100419.00;5056441;28;45431;-81
2022/12/13 08:49:16;;;;;;;;;29.75;17.25;;;;;-1.00;65.54;100423.34;5057782;28;45249;-82
2022/12/13 08:51:42;;;;;;;;;25.25;18.00;;;;;-0.95;65.76;100417.44;5057234;28;55639;-81
2022/12/13 08:54:07;;;;;;;;;23.75;15.25;;;;;-0.89;65.76;100426.03;5054351;28;64484;-81
2022/12/13 08:56:32;;;;;;;;;31.00;20.50;;;;;-0.86;65.67;100431.16;5053839;28;55821;-82
2022/12/13 08:58:58;;;;;;;;;27.00;18.00;;;;;-0.83;65.55;100431.22;5039177;28;45288;-82
2022/12/13 09:01:23;;;;;;;;;19.50;16.00;;;;;-0.80;65.60;100430.38;5056252;28;45550;-83
2022/12/13 09:03:48;;;;;;;;;29.50;22.00;;;;;-0.77;65.49;100427.88;5057193;28;52427;-82
2022/12/13 09:06:15;;;;;;;;;24.00;21.00;;;;;-0.76;65.43;100413.41;5055481;28;62734;-82
2022/12/13 09:08:41;;;;;;;;;29.50;22.00;;;;;-0.73;65.26;100403.22;5055864;28;45440;-82
2022/12/13 09:11:07;;;;;;;;;26.25;22.00;;;;;-0.73;65.52;100398.97;5057603;28;45346;-82
2022/12/13 09:13:34;;;;;;;;;25.75;17.50;;;;;-0.73;65.44;100401.50;5039114;28;48282;-82
2022/12/13 09:16:04;;;;;;;;;22.75;17.75;;;;;-0.73;65.13;100404.06;5055689;28;45965;-82
2022/12/13 09:18:30;;;;;;;;;20.75;17.00;;;;;-0.72;65.01;100407.50;5057102;28;45388;-83
2022/12/13 09:20:55;;;;;;;;;28.50;21.50;;;;;-0.69;65.18;100404.97;5056128;28;45382;-83
2022/12/13 09:23:21;;;;;;;;;27.75;17.00;;;;;-0.67;65.28;100404.16;5056297;28;56060;-82
2022/12/13 09:25:55;;;;;;;;;24.50;20.00;;;;;-0.65;65.03;100399.03;5055408;28;56870;-82
2022/12/13 09:28:21;;;;;;;;;20.00;17.75;;;;;-0.62;65.15;100401.66;5050563;28;45387;-82
2022/12/13 09:30:47;;;;;;;;;30.75;18.75;;;;;-0.58;64.70;100400.84;5057026;28;45563;-82
2022/12/13 09:33:12;;;;;;;;;25.00;13.50;;;;;-0.54;65.24;100401.72;5038921;28;45372;-82
2022/12/13 09:35:38;;;;;;;;;24.75;18.00;;;;;-0.51;64.62;100394.94;5056742;28;45360;-83
2022/12/13 09:38:04;;;;;;;;;34.50;20.00;;;;;-0.48;64.66;100399.25;5022165;28;45454;-83
2022/12/13 09:40:30;;;;;;;;;33.25;20.50;;;;;-0.46;64.71;100410.34;5038659;28;45601;-82
2022/12/13 09:42:56;;;;;;;;;29.50;25.50;;;;;-0.44;64.52;100403.56;5038657;28;47872;-82
2022/12/13 09:45:22;;;;;;;;;25.25;19.00;;;;;-0.45;64.35;100405.22;5056710;28;45500;-83
2022/12/13 09:47:47;;;;;;;;;23.00;15.75;;;;;-0.44;64.33;100401.00;5038891;28;45539;-82
2022/12/13 09:50:14;;;;;;;;;29.25;16.00;;;;;-0.42;64.20;100401.88;5038815;28;45419;-82
2022/12/13 09:52:41;;;;;;;;;18.00;16.00;;;;;-0.40;64.23;100401.03;5038147;28;46370;-83
2022/12/13 09:55:22;;;;;;;;;27.25;21.75;;;;;-0.40;63.69;100397.63;5038208;28;45845;-83
2022/12/13 09:57:49;;;;;;;;;20.25;17.00;;;;;-0.39;63.71;100394.22;5038671;28;45464;-82
2022/12/13 10:00:17;;;;;;;;;30.50;21.75;;;;;-0.33;63.88;100394.28;5040151;28;45445;-82
2022/12/13 10:02:51;;;;;;;;;21.50;15.25;;;;;-0.29;63.76;100388.34;5055722;28;46674;-82
2022/12/13 10:05:24;;;;;;;;;19.00;18.25;;;;;-0.26;63.81;100395.19;5035828;28;45543;-81
2022/12/13 10:07:51;;;;;;;;;22.75;17.25;;;;;-0.21;63.63;100399.50;5041854;28;48941;-82
2022/12/13 10:10:17;;;;;;;;;19.25;16.50;;;;;-0.15;63.42;100395.31;5037017;28;45533;-82
2022/12/13 10:12:46;;;;;;;;;25.00;17.50;;;;;-0.11;63.26;100399.59;5035889;28;45499;-83
2022/12/13 10:15:16;;;;;;;;;24.00;18.00;;;;;-0.05;63.33;100397.97;5029558;28;46045;-82
2022/12/13 10:17:47;;;;;;;;;23.25;18.75;;;;;0.01;62.90;100393.75;5061619;27;46238;-81
2022/12/13 10:20:18;;;;;;;;;30.50;16.75;;;;;0.06;63.05;100392.94;5037675;28;45568;-82
2022/12/13 10:22:43;;;;;;;;;25.50;19.00;;;;;0.09;62.67;100389.53;5032804;28;46775;-82
2022/12/13 10:25:09;;;;;;;;;20.00;15.75;;;;;0.10;63.04;100386.16;5036574;28;45385;-82
2022/12/13 10:27:39;;;;;;;;;26.00;23.00;;;;;0.10;62.69;100388.72;5055061;28;45540;-82
2022/12/13 10:30:09;;;;;;;;;21.25;14.75;;;;;0.14;62.61;100377.66;5058290;28;45586;-82
2022/12/13 10:33:02;;;;;;;;;22.50;17.50;;;;;0.22;62.19;100381.09;5054360;28;46634;-82
2022/12/13 10:35:38;;;;;;;;;22.50;15.50;;;;;0.26;61.75;100382.00;5036308;28;45934;-82
2022/12/13 10:38:06;;;;;;;;;24.50;15.00;;;;;0.30;62.03;100376.91;5037063;28;45371;-83
2022/12/13 10:40:34;;;;;;;;;23.00;18.50;;;;;0.38;61.92;100371.84;5043853;28;45370;-82
2022/12/13 10:43:11;;;;;;;;;27.50;18.00;;;;;0.52;61.80;100371.94;5055347;28;46386;-82
2022/12/13 10:45:37;;;;;;;;;15.75;15.25;;;;;0.62;61.38;100373.72;5060625;28;45516;-83
2022/12/13 10:48:03;;;;;;;;;16.75;13.25;;;;;0.72;61.28;100372.91;5055152;28;45376;-82
2022/12/13 10:50:29;;;;;;;;;16.25;14.00;;;;;0.87;60.64;100376.41;5054765;28;45418;-82
2022/12/13 10:52:57;;;;;;;;;25.50;17.50;;;;;1.12;60.81;100367.13;5036838;28;46907;-83
2022/12/13 10:55:33;;;;;;;;;29.00;18.50;;;;;1.65;61.36;100365.53;5022892;28;45924;-83
2022/12/13 10:58:05;;;;;;;;;29.00;19.50;;;;;2.75;61.12;100361.19;5036705;28;45417;-83
2022/12/13 11:00:41;;;;;;;;;31.75;27.00;;;;;4.17;59.49;100349.19;5044501;28;45572;-83
2022/12/13 11:03:27;;;;;;;;;27.25;20.00;;;;;5.03;57.74;100335.41;5036392;28;46515;-82
2022/12/13 11:06:03;;;;;;;;;36.75;29.75;;;;;5.07;54.78;100328.50;5036335;28;45342;-83
2022/12/13 11:08:29;;;;;;;;;27.00;21.00;;;;;4.87;54.58;100321.00;5036103;28;45263;-83
2022/12/13 11:11:00;;;;;;;;;29.00;19.25;;;;;4.50;54.23;100323.16;5036271;28;46696;-83
2022/12/13 11:13:35;;;;;;;;;27.75;20.25;;;;;5.40;54.78;100318.56;5042889;28;46533;-83
2022/12/13 11:16:01;;;;;;;;;26.00;17.25;;;;;6.72;54.49;100307.72;5047086;28;45879;-83
2022/12/13 11:18:34;;;;;;;;;21.25;19.25;;;;;7.85;52.79;100306.94;5043028;28;45500;-82
2022/12/13 11:21:02;;;;;;;;;21.25;16.50;;;;;7.79;49.66;100303.69;5052238;28;45535;-82
2022/12/13 11:23:32;;;;;;;;;19.50;16.50;;;;;7.01;48.70;100311.47;5036439;28;48136;-82